createdAt,value
2022-08-28T00:01:23.911Z,92.98
2022-08-28T00:03:50.621Z,92.72
2022-08-28T00:06:18.806Z,92.98
2022-08-28T00:08:46.561Z,92.23
2022-08-28T00:11:21.068Z,92.16
2022-08-28T00:13:48.549Z,92.18
2022-08-28T00:16:15.440Z,91.94
2022-08-28T00:18:42.402Z,92.16
2022-08-28T00:21:10.063Z,92.05
2022-08-28T00:23:42.852Z,92.17
2022-08-28T00:26:31.749Z,92.07
2022-08-28T00:28:58.520Z,92.24
2022-08-28T00:31:25.302Z,92.04
2022-08-28T00:33:52.054Z,92.00
2022-08-28T00:36:19.590Z,92.17
2022-08-28T00:38:46.203Z,92.39
2022-08-28T00:41:13.186Z,92.51
2022-08-28T00:43:43.311Z,92.46
2022-08-28T00:46:14.460Z,92.71
2022-08-28T00:48:41.497Z,92.61
2022-08-28T00:51:28.638Z,92.52
2022-08-28T00:53:58.955Z,92.29
2022-08-28T00:56:27.560Z,92.30
2022-08-28T00:58:56.795Z,92.60
2022-08-28T01:01:24.271Z,92.49
2022-08-28T01:03:51.060Z,92.70
2022-08-28T01:06:20.516Z,92.87
2022-08-28T01:08:50.518Z,92.98
2022-08-28T01:11:21.618Z,92.74
2022-08-28T01:13:49.714Z,93.11
2022-08-28T01:16:19.231Z,93.10
2022-08-28T01:18:46.879Z,92.60
2022-08-28T01:21:22.258Z,92.33
2022-08-28T01:24:04.967Z,92.63
2022-08-28T01:26:32.371Z,92.95
2022-08-28T01:29:00.685Z,92.93
2022-08-28T01:31:31.036Z,92.46
2022-08-28T01:33:59.292Z,92.82
2022-08-28T01:36:26.422Z,92.94
2022-08-28T01:38:58.994Z,92.79
2022-08-28T01:41:25.686Z,92.44
2022-08-28T01:43:53.805Z,92.77
2022-08-28T01:46:21.014Z,93.25
2022-08-28T01:48:48.232Z,93.44
2022-08-28T01:51:15.157Z,93.26
2022-08-28T01:53:45.006Z,93.13
2022-08-28T01:56:15.090Z,93.12
2022-08-28T01:58:42.227Z,92.93
2022-08-28T02:01:11.152Z,93.12
2022-08-28T02:03:38.674Z,93.13
2022-08-28T02:06:06.072Z,92.95
2022-08-28T02:08:35.320Z,92.97
2022-08-28T02:11:02.290Z,93.14
2022-08-28T02:13:28.987Z,93.55
2022-08-28T02:15:57.022Z,93.00
2022-08-28T02:18:26.074Z,93.10
2022-08-28T02:20:52.778Z,93.51
2022-08-28T02:23:19.466Z,93.58
2022-08-28T02:25:47.688Z,93.35
2022-08-28T02:28:17.658Z,93.45
2022-08-28T02:30:44.727Z,93.82
2022-08-28T02:33:11.418Z,93.29
2022-08-28T02:35:40.235Z,93.21
2022-08-28T02:38:07.066Z,93.56
2022-08-28T02:40:33.889Z,93.05
2022-08-28T02:43:00.578Z,93.16
2022-08-28T02:45:30.210Z,92.77
2022-08-28T02:47:57.352Z,92.68
2022-08-28T02:50:24.758Z,92.65
2022-08-28T02:52:51.901Z,92.69
2022-08-28T02:55:19.738Z,92.40
2022-08-28T02:57:47.718Z,92.18
2022-08-28T03:00:19.906Z,92.30
2022-08-28T03:02:47.314Z,92.29
2022-08-28T03:05:17.326Z,92.07
2022-08-28T03:07:44.216Z,92.23
2022-08-28T03:10:11.319Z,92.23
2022-08-28T03:12:38.281Z,91.92
2022-08-28T03:15:07.516Z,92.17
2022-08-28T03:17:35.051Z,92.20
2022-08-28T03:20:01.742Z,91.78
2022-08-28T03:22:46.861Z,92.08
2022-08-28T03:25:13.616Z,91.87
2022-08-28T03:27:40.243Z,91.59
2022-08-28T03:30:07.950Z,91.65
2022-08-28T03:32:35.228Z,91.90
2022-08-28T03:35:03.316Z,91.70
2022-08-28T03:37:32.740Z,91.76
2022-08-28T03:40:00.640Z,92.16
2022-08-28T03:42:27.397Z,92.34
2022-08-28T03:44:54.445Z,92.86
2022-08-28T03:47:21.063Z,93.07
2022-08-28T03:49:53.658Z,93.27
2022-08-28T03:52:20.591Z,93.52
2022-08-28T03:54:48.062Z,93.45
2022-08-28T03:57:22.392Z,93.63
2022-08-28T03:59:51.415Z,93.73
2022-08-28T04:02:20.423Z,93.85
2022-08-28T04:04:48.899Z,94.01
2022-08-28T04:07:16.136Z,93.68
2022-08-28T04:09:43.080Z,93.94
2022-08-28T04:12:10.293Z,94.47
2022-08-28T04:14:37.446Z,94.65
2022-08-28T04:17:05.494Z,94.07
2022-08-28T04:19:34.141Z,93.99
2022-08-28T04:22:01.264Z,94.19
2022-08-28T04:24:27.986Z,94.29
2022-08-28T04:26:54.682Z,94.11
2022-08-28T04:29:22.947Z,93.55
2022-08-28T04:31:50.416Z,93.23
2022-08-28T04:34:17.928Z,92.72
2022-08-28T04:36:44.877Z,92.45
2022-08-28T04:39:11.781Z,92.10
2022-08-28T04:41:38.789Z,92.15
2022-08-28T04:44:06.493Z,92.14
2022-08-28T04:46:33.325Z,91.96
2022-08-28T04:49:00.693Z,92.36
2022-08-28T04:51:28.401Z,92.16
2022-08-28T04:53:55.135Z,92.44
2022-08-28T04:56:21.836Z,92.41
2022-08-28T04:58:48.501Z,92.20
2022-08-28T05:01:21.049Z,92.21
2022-08-28T05:03:52.658Z,92.12
2022-08-28T05:06:19.300Z,92.32
2022-08-28T05:08:48.028Z,92.30
2022-08-28T05:11:33.762Z,92.34
2022-08-28T05:14:11.577Z,92.08
2022-08-28T05:16:46.567Z,91.69
2022-08-28T05:19:14.731Z,91.57
2022-08-28T05:21:42.590Z,91.27
2022-08-28T05:24:09.880Z,91.08
2022-08-28T05:26:38.953Z,90.80
2022-08-28T05:29:08.023Z,90.88
2022-08-28T05:31:35.053Z,90.73
2022-08-28T05:34:02.964Z,90.20
2022-08-28T05:36:34.983Z,90.41
2022-08-28T05:39:05.287Z,90.53
2022-08-28T05:41:34.344Z,90.56
2022-08-28T05:44:04.714Z,90.69
2022-08-28T05:46:31.946Z,90.95
2022-08-28T05:49:00.440Z,91.13
2022-08-28T05:51:28.078Z,91.35
2022-08-28T05:53:57.555Z,91.84
2022-08-28T05:56:29.624Z,92.04
2022-08-28T05:58:57.632Z,92.10
2022-08-28T06:01:33.621Z,92.75
2022-08-28T06:04:02.528Z,92.54
2022-08-28T06:06:34.288Z,92.35
2022-08-28T06:09:11.748Z,92.88
2022-08-28T06:11:40.468Z,92.63
2022-08-28T06:14:13.598Z,92.77
2022-08-28T06:16:47.220Z,92.67
2022-08-28T06:19:14.430Z,92.40
2022-08-28T06:21:41.947Z,92.61
2022-08-28T06:24:10.822Z,93.72
2022-08-28T06:26:38.109Z,92.75
2022-08-28T06:29:08.535Z,92.20
2022-08-28T06:31:35.811Z,91.52
2022-08-28T06:34:04.508Z,91.49
2022-08-28T06:36:33.787Z,90.74
2022-08-28T06:39:02.719Z,90.88
2022-08-28T06:41:34.605Z,90.85
2022-08-28T06:44:02.930Z,90.32
2022-08-28T06:46:30.516Z,90.72
2022-08-28T06:48:57.338Z,90.86
2022-08-28T06:51:25.061Z,91.05
2022-08-28T06:53:52.470Z,90.81
2022-08-28T06:56:26.005Z,90.92
2022-08-28T06:58:58.075Z,90.49
2022-08-28T07:01:31.472Z,89.83
2022-08-28T07:04:08.612Z,90.47
2022-08-28T07:06:38.071Z,89.71
2022-08-28T07:09:07.195Z,89.41
2022-08-28T07:11:37.319Z,88.84
2022-08-28T07:14:04.827Z,88.82
2022-08-28T07:16:35.035Z,87.40
2022-08-28T07:19:04.767Z,87.33
2022-08-28T07:21:38.761Z,87.82
2022-08-28T07:24:10.439Z,86.99
2022-08-28T07:26:40.813Z,86.18
2022-08-28T07:29:10.867Z,86.22
2022-08-28T07:31:44.046Z,86.40
2022-08-28T07:34:13.515Z,85.59
2022-08-28T07:36:41.099Z,86.79
2022-08-28T07:39:09.044Z,87.09
2022-08-28T07:41:39.093Z,86.24
2022-08-28T07:44:26.857Z,86.51
2022-08-28T07:46:55.911Z,85.87
2022-08-28T07:49:23.542Z,85.91
2022-08-28T07:51:56.836Z,85.00
2022-08-28T07:54:23.856Z,84.67
2022-08-28T07:56:50.984Z,84.34
2022-08-28T07:59:19.402Z,82.30
2022-08-28T08:01:49.081Z,83.46
2022-08-28T08:04:16.612Z,81.88
2022-08-28T08:06:44.927Z,82.06
2022-08-28T08:09:17.996Z,81.65
2022-08-28T08:11:45.059Z,81.71
2022-08-28T08:14:15.813Z,80.34
2022-08-28T08:16:44.860Z,79.80
2022-08-28T08:19:20.291Z,79.66
2022-08-28T08:21:53.300Z,78.53
2022-08-28T08:24:26.684Z,80.67
2022-08-28T08:27:00.258Z,80.75
2022-08-28T08:29:31.419Z,79.67
2022-08-28T08:32:06.866Z,80.74
2022-08-28T08:34:36.716Z,79.63
2022-08-28T08:37:05.469Z,79.11
2022-08-28T08:39:33.839Z,79.17
2022-08-28T08:42:04.192Z,78.78
2022-08-28T08:44:40.828Z,80.04
2022-08-28T08:47:19.434Z,80.18
2022-08-28T08:49:57.112Z,80.53
2022-08-28T08:52:38.808Z,79.05
2022-08-28T08:55:23.066Z,81.40
2022-08-28T08:57:59.370Z,79.75
2022-08-28T09:00:26.575Z,79.07
2022-08-28T09:03:09.481Z,77.84
2022-08-28T09:05:46.699Z,79.15
2022-08-28T09:08:25.198Z,82.00
2022-08-28T09:11:00.765Z,82.47
2022-08-28T09:13:51.630Z,83.52
2022-08-28T09:16:29.346Z,83.03
2022-08-28T09:18:58.290Z,82.95
2022-08-28T09:21:29.392Z,83.71
2022-08-28T09:23:57.598Z,82.29
2022-08-28T09:26:25.471Z,83.46
2022-08-28T09:29:20.768Z,83.04
2022-08-28T09:31:50.425Z,81.75
2022-08-28T09:34:27.678Z,79.68
2022-08-28T09:36:56.334Z,81.58
2022-08-28T09:39:30.576Z,80.14
2022-08-28T09:42:40.896Z,79.46
2022-08-28T09:45:21.416Z,78.45
2022-08-28T09:47:56.673Z,78.55
2022-08-28T09:50:31.327Z,78.96
2022-08-28T09:53:08.831Z,78.54
2022-08-28T09:56:25.050Z,79.96
2022-08-28T09:59:02.846Z,83.33
2022-08-28T10:01:45.183Z,83.50
2022-08-28T10:04:20.891Z,82.14
2022-08-28T10:07:00.685Z,84.07
2022-08-28T10:09:46.845Z,85.69
2022-08-28T10:12:35.961Z,84.31
2022-08-28T10:15:30.651Z,82.51
2022-08-28T10:18:21.498Z,82.46
2022-08-28T10:21:36.015Z,80.48
2022-08-28T10:24:28.731Z,79.46
2022-08-28T10:27:21.346Z,78.67
2022-08-28T10:30:20.750Z,77.82
2022-08-28T10:33:11.902Z,79.14
2022-08-28T10:36:03.987Z,79.14
2022-08-28T10:38:30.827Z,78.94
2022-08-28T10:41:35.733Z,78.35
2022-08-28T10:44:05.316Z,77.49
2022-08-28T10:46:42.570Z,77.51
2022-08-28T10:49:30.034Z,76.67
2022-08-28T10:52:05.207Z,77.25
2022-08-28T10:54:53.203Z,76.62
2022-08-28T10:57:24.229Z,76.03
2022-08-28T10:59:54.069Z,79.50
2022-08-28T11:02:24.745Z,78.74
2022-08-28T11:04:58.208Z,78.87
2022-08-28T11:07:54.525Z,77.91
2022-08-28T11:10:23.745Z,79.94
2022-08-28T11:12:52.598Z,79.38
2022-08-28T11:15:36.456Z,78.72
2022-08-28T11:18:16.056Z,78.37
2022-08-28T11:21:09.963Z,77.70
2022-08-28T11:23:43.510Z,77.15
2022-08-28T11:26:14.746Z,78.71
2022-08-28T11:28:47.533Z,78.15
2022-08-28T11:31:14.257Z,79.18
2022-08-28T11:33:56.341Z,78.78
2022-08-28T11:36:23.001Z,79.61
2022-08-28T11:38:52.286Z,78.68
2022-08-28T11:41:22.414Z,78.37
2022-08-28T11:43:52.471Z,78.16
2022-08-28T11:46:33.784Z,78.21
2022-08-28T11:49:03.620Z,76.28
2022-08-28T11:51:48.686Z,78.04
2022-08-28T11:54:50.689Z,77.87
2022-08-28T11:57:20.280Z,78.83
2022-08-28T11:59:55.906Z,79.21
2022-08-28T12:02:46.965Z,76.73
2022-08-28T12:05:16.774Z,75.73
2022-08-28T12:07:51.396Z,75.06
2022-08-28T12:10:27.468Z,74.23
2022-08-28T12:13:39.015Z,75.17
2022-08-28T12:16:07.642Z,74.14
2022-08-28T12:18:59.070Z,74.73
2022-08-28T12:21:28.833Z,71.93
2022-08-28T12:24:05.364Z,75.27
2022-08-28T12:26:39.920Z,76.58
2022-08-28T12:29:34.878Z,73.80
2022-08-28T12:32:18.639Z,73.20
2022-08-28T12:34:53.140Z,73.73
2022-08-28T12:37:24.190Z,74.21
2022-08-28T12:39:51.783Z,74.33
2022-08-28T12:42:20.247Z,73.42
2022-08-28T12:44:51.672Z,73.23
2022-08-28T12:47:22.844Z,73.45
2022-08-28T12:49:49.690Z,72.99
2022-08-28T12:52:21.037Z,74.72
2022-08-28T12:54:50.284Z,76.57
2022-08-28T12:57:20.515Z,75.35
2022-08-28T12:59:50.419Z,76.14
2022-08-28T13:02:34.224Z,75.86
2022-08-28T13:05:09.862Z,75.17
2022-08-28T13:07:49.610Z,73.31
2022-08-28T13:10:21.563Z,72.57
2022-08-28T13:13:05.870Z,73.75
2022-08-28T13:15:45.938Z,72.53
2022-08-28T13:18:44.459Z,73.01
2022-08-28T13:21:17.293Z,72.64
2022-08-28T13:24:01.704Z,74.81
2022-08-28T13:26:33.827Z,74.59
2022-08-28T13:29:26.880Z,74.98
2022-08-28T13:32:01.983Z,76.17
2022-08-28T13:34:31.518Z,74.51
2022-08-28T13:37:20.198Z,75.63
2022-08-28T13:39:47.750Z,73.81
2022-08-28T13:42:17.966Z,74.77
2022-08-28T13:44:56.767Z,73.86
2022-08-28T13:47:23.433Z,73.89
2022-08-28T13:49:50.126Z,74.17
2022-08-28T13:52:19.345Z,73.73
2022-08-28T13:54:46.843Z,74.47
2022-08-28T13:57:14.586Z,75.86
2022-08-28T13:59:41.776Z,74.70
2022-08-28T14:02:31.679Z,75.83
2022-08-28T14:04:58.720Z,75.81
2022-08-28T14:07:25.478Z,74.37
2022-08-28T14:09:56.286Z,73.46
2022-08-28T14:12:33.028Z,73.96
2022-08-28T14:15:03.489Z,73.34
2022-08-28T14:17:30.220Z,72.53
2022-08-28T14:19:58.872Z,71.61
2022-08-28T14:22:25.717Z,72.24
2022-08-28T14:24:55.973Z,72.75
2022-08-28T14:27:22.848Z,72.62
2022-08-28T14:29:49.629Z,73.62
2022-08-28T14:32:25.052Z,72.95
2022-08-28T14:34:52.986Z,72.91
2022-08-28T14:37:20.493Z,71.59
2022-08-28T14:39:48.279Z,69.47
2022-08-28T14:42:15.094Z,71.11
2022-08-28T14:44:50.510Z,71.48
2022-08-28T14:47:18.282Z,71.09
2022-08-28T14:49:44.986Z,71.78
2022-08-28T14:52:17.697Z,70.64
2022-08-28T14:54:44.464Z,70.18
2022-08-28T14:57:13.768Z,70.37
2022-08-28T14:59:40.843Z,70.21
2022-08-28T15:02:08.195Z,68.59
2022-08-28T15:04:37.855Z,69.68
2022-08-28T15:07:16.770Z,69.71
2022-08-28T15:09:43.821Z,70.85
2022-08-28T15:12:11.487Z,71.18
2022-08-28T15:14:39.578Z,71.25
2022-08-28T15:17:08.000Z,70.60
2022-08-28T15:19:36.990Z,70.33
2022-08-28T15:22:06.419Z,70.78
2022-08-28T15:24:34.611Z,71.35
2022-08-28T15:27:06.511Z,70.43
2022-08-28T15:29:34.278Z,71.16
2022-08-28T15:32:00.998Z,71.36
2022-08-28T15:34:28.516Z,71.56
2022-08-28T15:36:56.782Z,71.90
2022-08-28T15:39:44.375Z,71.67
2022-08-28T15:42:11.968Z,71.64
2022-08-28T15:44:39.280Z,70.76
2022-08-28T15:47:07.056Z,70.53
2022-08-28T15:49:43.692Z,70.61
2022-08-28T15:52:19.006Z,71.19
2022-08-28T15:54:46.023Z,71.96
2022-08-28T15:57:12.799Z,71.80
2022-08-28T15:59:48.815Z,74.43
2022-08-28T16:02:23.486Z,74.68
2022-08-28T16:04:53.574Z,75.29
2022-08-28T16:07:22.162Z,77.20
2022-08-28T16:09:49.156Z,77.51
2022-08-28T16:12:17.303Z,78.31
2022-08-28T16:14:44.274Z,79.83
2022-08-28T16:17:11.568Z,79.87
2022-08-28T16:19:40.207Z,79.98
2022-08-28T16:22:07.705Z,79.54
2022-08-28T16:24:34.482Z,80.09
2022-08-28T16:27:02.585Z,80.11
2022-08-28T16:29:34.100Z,78.92
2022-08-28T16:32:02.360Z,78.84
2022-08-28T16:34:32.531Z,77.87
2022-08-28T16:37:00.204Z,78.20
2022-08-28T16:39:27.458Z,77.54
2022-08-28T16:41:56.587Z,77.76
2022-08-28T16:44:28.179Z,78.19
2022-08-28T16:46:55.586Z,77.70
2022-08-28T16:49:25.033Z,78.08
2022-08-28T16:51:51.673Z,77.34
2022-08-28T16:54:19.111Z,75.91
2022-08-28T16:56:46.800Z,75.88
2022-08-28T16:59:17.501Z,76.38
2022-08-28T17:01:44.821Z,76.72
2022-08-28T17:04:12.229Z,77.04
2022-08-28T17:06:39.973Z,76.96
2022-08-28T17:09:06.792Z,77.44
2022-08-28T17:11:33.617Z,76.89
2022-08-28T17:14:00.394Z,77.07
2022-08-28T17:16:29.721Z,76.17
2022-08-28T17:18:56.647Z,76.10
2022-08-28T17:21:42.403Z,76.49
2022-08-28T17:24:12.444Z,76.62
2022-08-28T17:26:40.626Z,76.92
2022-08-28T17:29:07.405Z,77.10
2022-08-28T17:31:41.227Z,77.13
2022-08-28T17:34:08.141Z,77.14
2022-08-28T17:36:39.730Z,77.30
2022-08-28T17:39:13.170Z,77.25
2022-08-28T17:41:40.727Z,77.98
2022-08-28T17:44:08.001Z,78.13
2022-08-28T17:46:38.111Z,78.68
2022-08-28T17:49:06.942Z,78.79
2022-08-28T17:51:43.413Z,78.62
2022-08-28T17:54:16.696Z,77.07
2022-08-28T17:56:43.847Z,75.74
2022-08-28T17:59:11.581Z,74.64
2022-08-28T18:01:42.098Z,73.86
2022-08-28T18:04:09.057Z,72.37
2022-08-28T18:06:36.016Z,72.48
2022-08-28T18:09:03.671Z,72.78
2022-08-28T18:11:30.402Z,71.97
2022-08-28T18:14:00.759Z,72.37
2022-08-28T18:16:31.385Z,72.01
2022-08-28T18:18:59.649Z,72.99
2022-08-28T18:21:26.618Z,73.56
2022-08-28T18:23:53.264Z,73.85
2022-08-28T18:26:20.388Z,73.89
2022-08-28T18:28:48.981Z,75.20
2022-08-28T18:31:21.156Z,75.39
2022-08-28T18:33:56.535Z,75.10
2022-08-28T18:36:34.191Z,75.86
2022-08-28T18:39:02.413Z,76.02
2022-08-28T18:41:41.631Z,75.58
2022-08-28T18:44:11.844Z,75.41
2022-08-28T18:46:41.649Z,75.51
2022-08-28T18:49:14.513Z,75.41
2022-08-28T18:51:47.943Z,75.77
2022-08-28T18:54:22.260Z,76.07
2022-08-28T18:56:50.401Z,75.93
2022-08-28T18:59:23.003Z,75.44
2022-08-28T19:01:49.839Z,76.02
2022-08-28T19:04:22.790Z,75.96
2022-08-28T19:06:54.667Z,75.93
2022-08-28T19:09:32.474Z,76.47
2022-08-28T19:12:01.430Z,76.56
2022-08-28T19:14:30.784Z,77.47
2022-08-28T19:16:57.430Z,77.40
2022-08-28T19:19:24.308Z,77.46
2022-08-28T19:21:54.014Z,77.50
2022-08-28T19:24:22.412Z,77.47
2022-08-28T19:26:49.012Z,78.36
2022-08-28T19:29:17.853Z,78.96
2022-08-28T19:31:44.689Z,78.92
2022-08-28T19:34:16.837Z,79.10
2022-08-28T19:36:55.270Z,79.65
2022-08-28T19:39:28.017Z,78.80
2022-08-28T19:42:00.702Z,78.65
2022-08-28T19:44:29.874Z,78.74
2022-08-28T19:46:56.682Z,78.88
2022-08-28T19:49:26.650Z,78.05
2022-08-28T19:51:55.469Z,77.95
2022-08-28T19:54:25.077Z,77.55
2022-08-28T19:56:52.108Z,77.88
2022-08-28T19:59:18.787Z,79.65
2022-08-28T20:01:46.554Z,79.44
2022-08-28T20:04:17.412Z,78.90
2022-08-28T20:06:45.390Z,79.35
2022-08-28T20:09:13.172Z,80.36
2022-08-28T20:11:42.308Z,81.43
2022-08-28T20:14:09.021Z,80.88
2022-08-28T20:16:38.839Z,79.80
2022-08-28T20:19:07.828Z,79.99
2022-08-28T20:21:37.126Z,79.89
2022-08-28T20:24:12.840Z,79.64
2022-08-28T20:26:40.228Z,79.38
2022-08-28T20:29:08.467Z,79.77
2022-08-28T20:31:40.589Z,79.43
2022-08-28T20:34:09.167Z,79.05
2022-08-28T20:36:38.572Z,80.36
2022-08-28T20:39:07.343Z,80.84
2022-08-28T20:41:35.956Z,80.49
2022-08-28T20:44:07.799Z,81.01
2022-08-28T20:46:40.442Z,81.50
2022-08-28T20:49:09.061Z,82.07
2022-08-28T20:51:53.674Z,82.83
2022-08-28T20:54:22.202Z,83.48
2022-08-28T20:56:50.665Z,82.70
2022-08-28T20:59:18.240Z,84.10
2022-08-28T21:01:45.155Z,84.04
2022-08-28T21:04:14.449Z,83.36
2022-08-28T21:06:41.590Z,84.63
2022-08-28T21:09:08.252Z,83.18
2022-08-28T21:11:34.871Z,82.26
2022-08-28T21:14:05.778Z,81.84
2022-08-28T21:16:35.435Z,81.19
2022-08-28T21:19:16.119Z,80.72
2022-08-28T21:21:46.415Z,80.48
2022-08-28T21:24:16.598Z,80.33
2022-08-28T21:26:45.607Z,80.56
2022-08-28T21:29:17.611Z,81.18
2022-08-28T21:31:45.046Z,81.54
2022-08-28T21:34:12.412Z,80.91
2022-08-28T21:36:46.911Z,80.06
2022-08-28T21:39:17.408Z,80.04
2022-08-28T21:41:44.052Z,79.55
2022-08-28T21:44:10.991Z,79.34
2022-08-28T21:46:37.899Z,79.10
2022-08-28T21:49:04.895Z,78.37
2022-08-28T21:51:33.639Z,78.66
2022-08-28T21:54:00.288Z,78.72
2022-08-28T21:56:27.828Z,78.37
2022-08-28T21:58:55.804Z,78.62
2022-08-28T22:01:26.514Z,78.51
2022-08-28T22:03:55.037Z,78.52
2022-08-28T22:06:23.779Z,78.54
2022-08-28T22:08:54.639Z,78.56
2022-08-28T22:11:25.575Z,78.36
2022-08-28T22:13:54.643Z,78.43
2022-08-28T22:16:21.952Z,78.64
2022-08-28T22:18:48.669Z,78.11
2022-08-28T22:21:35.937Z,77.58
2022-08-28T22:24:03.039Z,77.59
2022-08-28T22:26:29.807Z,77.50
2022-08-28T22:28:57.422Z,77.77
2022-08-28T22:31:25.123Z,78.41
2022-08-28T22:33:52.272Z,79.15
2022-08-28T22:36:20.225Z,79.67
2022-08-28T22:38:53.237Z,79.87
2022-08-28T22:41:20.594Z,79.67
2022-08-28T22:43:51.057Z,79.26
2022-08-28T22:46:18.919Z,79.33
2022-08-28T22:48:46.049Z,79.00
2022-08-28T22:51:15.121Z,78.77
2022-08-28T22:53:43.664Z,79.07
2022-08-28T22:56:11.711Z,79.32
2022-08-28T22:58:41.326Z,79.41
2022-08-28T23:01:12.919Z,79.32
2022-08-28T23:03:41.312Z,79.39
2022-08-28T23:06:08.209Z,79.37
2022-08-28T23:08:35.285Z,79.19
2022-08-28T23:11:02.484Z,78.77
2022-08-28T23:13:31.135Z,78.85
2022-08-28T23:15:58.212Z,78.62
2022-08-28T23:18:27.715Z,79.18
2022-08-28T23:20:55.227Z,79.49
2022-08-28T23:23:23.409Z,79.75
2022-08-28T23:25:50.566Z,79.52
2022-08-28T23:28:17.994Z,79.16
2022-08-28T23:30:48.608Z,79.33
2022-08-28T23:33:23.698Z,79.36
2022-08-28T23:35:52.083Z,79.60
2022-08-28T23:38:18.819Z,78.90
2022-08-28T23:40:46.265Z,78.85
2022-08-28T23:43:12.927Z,78.97
2022-08-28T23:45:42.122Z,78.85
2022-08-28T23:48:09.646Z,78.62
2022-08-28T23:50:40.813Z,78.98
2022-08-28T23:53:08.678Z,79.16
2022-08-28T23:55:36.776Z,79.62
2022-08-28T23:58:04.050Z,79.65
